KSMF data

Available data for KSMF from the past 2 hours
SACRAMENTO/METRO, CA
Metar
KSMF 260253Z COR 18009KT 10SM FEW150 21/13 A2992 RMK AO2 SLP130 T02110128 56005

02:53 UTC

Wind: 180° 9kt

Visibility: 10 SM

Sky: FEW 15000 ft

Temp: 21 deg C / 69.8 deg F

Dewpoint: 13 deg C / 55.4 deg F

Pressure: 29.92 inHg

TAF
KSMF 252322Z 2600/2624 22005KT P6SM SKC FM260100 17008KT P6SM SCT250